Time;durP1;ratioP1;P1;durP2;ratioP2;P2;SDS_P1;SDS_P2;PMS_P1;PMS_P2;Temp;Humidity;BMP_temperature;BMP_pressure;BME280_temperature;BME280_humidity;BME280_pressure;Samples;Min_cycle;Max_cycle;Signal;HPM_P1;HPM_P2
2022/04/21 00:00:05;;;;;;;4.35;3.00;;;9.40;44.70;;;;;;5124828;27;20028;-59
2022/04/21 00:02:31;;;;;;;8.32;3.85;;;9.40;45.00;;;;;;5118365;27;20040;-59
2022/04/21 00:04:57;;;;;;;5.55;3.22;;;9.30;45.10;;;;;;5126369;27;20038;-58
2022/04/21 00:07:24;;;;;;;5.25;3.22;;;9.30;45.20;;;;;;5120875;27;20027;-58
2022/04/21 00:09:50;;;;;;;5.68;3.17;;;9.20;45.30;;;;;;5121947;27;20032;-60
2022/04/21 00:12:16;;;;;;;4.57;3.03;;;9.20;45.50;;;;;;5120269;27;20030;-59
2022/04/21 00:14:41;;;;;;;7.13;3.30;;;9.10;45.70;;;;;;5129540;27;20027;-59
2022/04/21 00:17:08;;;;;;;7.63;3.25;;;9.10;45.80;;;;;;5122775;27;20039;-58
2022/04/21 00:19:35;;;;;;;5.50;2.88;;;9.00;45.90;;;;;;5126231;27;20019;-58
2022/04/21 00:24:45;;;;;;;5.68;3.10;;;9.00;46.10;;;;;;5123900;27;20150;-58
2022/04/21 00:27:11;;;;;;;7.97;3.47;;;8.90;45.90;;;;;;5127803;27;20031;-58
2022/04/21 00:29:37;;;;;;;5.68;3.15;;;8.90;46.10;;;;;;5125995;27;20058;-60
2022/04/21 00:32:03;;;;;;;5.47;3.17;;;8.80;46.20;;;;;;5125695;27;20023;-59
2022/04/21 00:34:29;;;;;;;5.07;3.22;;;8.80;46.20;;;;;;5124846;27;20020;-60
2022/04/21 00:36:54;;;;;;;6.95;3.53;;;8.70;46.30;;;;;;5114494;27;20493;-59
2022/04/21 00:39:20;;;;;;;5.55;3.25;;;8.70;46.40;;;;;;5114675;27;20028;-59
2022/04/21 00:41:46;;;;;;;5.55;3.15;;;8.70;46.40;;;;;;5121177;27;20032;-58
2022/04/21 00:44:11;;;;;;;6.25;3.05;;;8.60;46.40;;;;;;5122802;27;20015;-58
2022/04/21 00:46:38;;;;;;;6.80;3.10;;;8.60;46.50;;;;;;5118075;27;20039;-58
2022/04/21 00:49:06;;;;;;;4.20;3.10;;;8.60;46.60;;;;;;5114042;27;20081;-61
2022/04/21 00:51:32;;;;;;;9.23;2.88;;;8.50;46.70;;;;;;5110115;27;20078;-60
2022/04/21 00:53:59;;;;;;;8.00;3.38;;;8.50;46.90;;;;;;5119520;27;20019;-60
2022/04/21 00:56:26;;;;;;;6.03;3.30;;;8.40;47.10;;;;;;5125410;27;20028;-59
2022/04/21 00:58:52;;;;;;;6.28;3.45;;;8.40;47.30;;;;;;5124783;27;20033;-60
2022/04/21 01:04:04;;;;;;;6.93;3.40;;;8.30;47.50;;;;;;5126215;27;20034;-58
2022/04/21 01:06:30;;;;;;;5.45;3.10;;;8.30;47.40;;;;;;5127207;27;20034;-60
2022/04/21 01:08:56;;;;;;;8.20;3.50;;;8.30;47.60;;;;;;5122024;27;20035;-60
2022/04/21 01:11:22;;;;;;;8.38;3.45;;;8.30;47.70;;;;;;5120214;27;20142;-59
2022/04/21 01:13:47;;;;;;;5.93;3.55;;;8.30;47.80;;;;;;5123923;27;20030;-59
2022/04/21 01:16:14;;;;;;;9.10;4.25;;;8.20;48.00;;;;;;5122060;27;20020;-58
2022/04/21 01:18:41;;;;;;;4.40;3.28;;;8.20;48.00;;;;;;5120917;27;20036;-59
2022/04/21 01:21:07;;;;;;;6.35;3.80;;;8.20;48.10;;;;;;5116432;27;20103;-58
2022/04/21 01:23:33;;;;;;;10.73;3.70;;;8.10;48.00;;;;;;5127641;27;20080;-59
2022/04/21 01:26:01;;;;;;;8.13;3.40;;;8.10;48.10;;;;;;5121145;27;20117;-59
2022/04/21 01:28:27;;;;;;;7.28;3.42;;;8.10;48.30;;;;;;5111812;27;20084;-59
2022/04/21 01:30:56;;;;;;;11.35;3.65;;;8.10;48.50;;;;;;5113686;27;20047;-60
2022/04/21 01:33:21;;;;;;;4.75;3.20;;;8.00;48.70;;;;;;5120449;27;20031;-60
2022/04/21 01:35:47;;;;;;;6.78;3.88;;;8.00;48.50;;;;;;5127708;27;20042;-59
2022/04/21 01:41:09;;;;;;;8.68;3.85;;;7.90;48.70;;;;;;5122940;27;20112;-59
2022/04/21 01:43:36;;;;;;;7.93;4.10;;;7.90;48.90;;;;;;5119177;27;20027;-60
2022/04/21 01:46:02;;;;;;;4.88;3.85;;;7.80;49.10;;;;;;5127406;27;20031;-60
2022/04/21 01:48:28;;;;;;;9.20;4.07;;;7.80;49.20;;;;;;5117358;27;20044;-60
2022/04/21 01:50:53;;;;;;;7.95;4.07;;;7.80;49.20;;;;;;5116001;27;20039;-59
2022/04/21 01:53:19;;;;;;;6.45;4.22;;;7.70;49.50;;;;;;5117397;27;20539;-58
2022/04/21 01:55:46;;;;;;;6.95;3.95;;;7.70;49.60;;;;;;5126198;27;20027;-59
2022/04/21 01:58:12;;;;;;;5.43;3.95;;;7.60;49.70;;;;;;5113208;27;20046;-60
2022/04/21 02:00:38;;;;;;;6.50;3.90;;;7.60;49.60;;;;;;5114070;27;20028;-58
2022/04/21 02:03:04;;;;;;;6.40;3.65;;;7.50;49.80;;;;;;5109604;28;20020;-58
2022/04/21 02:05:29;;;;;;;7.65;4.38;;;7.50;50.00;;;;;;5131546;27;20026;-60
2022/04/21 02:07:55;;;;;;;6.22;4.07;;;7.50;50.10;;;;;;5120810;27;20024;-60
2022/04/21 02:10:23;;;;;;;7.03;4.47;;;7.50;50.20;;;;;;5123826;27;20031;-58
2022/04/21 02:12:50;;;;;;;11.20;4.00;;;7.40;50.20;;;;;;5113826;27;20036;-59
2022/04/21 02:15:18;;;;;;;7.28;4.63;;;7.40;50.30;;;;;;5125427;27;20869;-58
2022/04/21 02:17:46;;;;;;;10.70;4.57;;;7.40;50.50;;;;;;5124965;27;20038;-60
2022/04/21 02:20:16;;;;;;;7.40;4.10;;;7.40;50.50;;;;;;5113277;27;20024;-58
2022/04/21 02:22:45;;;;;;;6.85;4.22;;;7.40;50.60;;;;;;5111484;27;20036;-59
2022/04/21 02:25:12;;;;;;;5.03;3.78;;;7.40;50.60;;;;;;5119352;27;20028;-60
2022/04/21 02:27:40;;;;;;;6.78;4.38;;;7.30;50.60;;;;;;5123406;27;20114;-58
2022/04/21 02:30:08;;;;;;;7.13;4.78;;;7.30;50.60;;;;;;5123881;27;20044;-59
2022/04/21 02:32:34;;;;;;;8.38;4.03;;;7.30;50.70;;;;;;5119274;27;20035;-59
2022/04/21 02:35:01;;;;;;;6.18;3.90;;;7.30;50.70;;;;;;5120576;27;20034;-60
2022/04/21 02:37:26;;;;;;;8.15;4.30;;;7.30;50.70;;;;;;5118941;27;20046;-60
2022/04/21 02:39:52;;;;;;;5.50;3.90;;;7.30;50.70;;;;;;5122444;27;20027;-60
2022/04/21 02:42:21;;;;;;;7.28;4.13;;;7.30;50.70;;;;;;5112609;27;20027;-60
2022/04/21 02:44:48;;;;;;;9.88;4.80;;;7.30;50.90;;;;;;5120526;27;20039;-59
2022/04/21 02:47:14;;;;;;;7.07;4.25;;;7.30;51.10;;;;;;5119626;28;20039;-60
2022/04/21 02:49:45;;;;;;;10.40;4.53;;;7.30;51.20;;;;;;5120074;28;20044;-59
2022/04/21 02:52:12;;;;;;;9.27;4.28;;;7.30;51.20;;;;;;5116815;28;20057;-60
2022/04/21 02:57:24;;;;;;;8.35;4.40;;;7.30;51.40;;;;;;5121163;28;20045;-59
2022/04/21 02:59:51;;;;;;;8.50;4.85;;;7.20;51.30;;;;;;5128465;28;20031;-59
2022/04/21 03:02:18;;;;;;;8.15;4.47;;;7.20;51.80;;;;;;5116895;28;20024;-60
2022/04/21 03:04:44;;;;;;;11.77;5.13;;;7.20;51.50;;;;;;5126167;28;20012;-60
2022/04/21 03:07:10;;;;;;;11.88;4.97;;;7.20;51.60;;;;;;5124780;28;20020;-59
2022/04/21 03:09:36;;;;;;;15.15;5.40;;;7.10;51.70;;;;;;5126766;28;20039;-59
2022/04/21 03:12:07;;;;;;;11.60;4.55;;;7.10;51.80;;;;;;5127826;28;20053;-61
2022/04/21 03:14:35;;;;;;;9.10;4.95;;;7.10;52.10;;;;;;5118624;28;20048;-61
2022/04/21 03:17:01;;;;;;;6.53;4.75;;;7.10;52.10;;;;;;5118861;28;20438;-60
2022/04/21 03:19:27;;;;;;;8.45;5.10;;;7.10;52.00;;;;;;5124043;28;20071;-60
2022/04/21 03:24:37;;;;;;;10.82;6.63;;;7.10;52.10;;;;;;5057078;28;20030;-59
2022/04/21 03:27:04;;;;;;;10.93;6.72;;;7.10;51.80;;;;;;5121602;28;20082;-59
2022/04/21 03:29:29;;;;;;;9.88;5.57;;;7.10;51.90;;;;;;5121140;28;20050;-61
2022/04/21 03:31:55;;;;;;;7.45;5.40;;;7.10;52.00;;;;;;5125930;28;20390;-60
2022/04/21 03:34:21;;;;;;;7.35;5.53;;;7.10;52.10;;;;;;5116424;28;20031;-59
2022/04/21 03:36:49;;;;;;;9.85;5.20;;;7.00;52.00;;;;;;5132385;28;20023;-59
2022/04/21 03:39:23;;;;;;;11.63;5.95;;;7.00;52.10;;;;;;5128962;28;20382;-59
2022/04/21 03:41:53;;;;;;;;;;;7.00;52.70;;;;;;5107565;28;20046;-60
2022/04/21 03:44:22;;;;;;;11.02;4.40;;;7.10;52.50;;;;;;5137267;27;19908;-59
2022/04/21 03:46:48;;;;;;;6.93;5.35;;;7.00;51.50;;;;;;5127260;28;20471;-61
2022/04/21 03:49:14;;;;;;;9.00;5.80;;;7.00;51.80;;;;;;5120099;28;20062;-61
2022/04/21 03:51:40;;;;;;;12.55;6.28;;;7.00;52.10;;;;;;5113304;28;20071;-60
2022/04/21 03:54:06;;;;;;;9.20;5.90;;;7.00;52.30;;;;;;5123147;28;20027;-61
2022/04/21 03:56:32;;;;;;;10.60;5.70;;;6.90;52.40;;;;;;5123008;27;20443;-60
2022/04/21 03:58:58;;;;;;;10.05;5.57;;;6.90;52.50;;;;;;5125533;27;20027;-60
2022/04/21 04:01:24;;;;;;;6.57;5.35;;;6.90;52.80;;;;;;5121352;27;20054;-61
2022/04/21 04:03:50;;;;;;;10.57;6.38;;;6.90;52.60;;;;;;5121686;27;20032;-60
2022/04/21 04:11:44;;;;;;;11.82;5.25;;;6.90;52.70;;;;;;5113573;27;20041;-60
2022/04/21 04:14:10;;;;;;;6.60;4.97;;;6.90;52.60;;;;;;5130101;27;20047;-59
2022/04/21 04:16:36;;;;;;;13.75;5.40;;;6.80;52.70;;;;;;5122352;28;20024;-60
2022/04/21 04:19:05;;;;;;;9.02;5.90;;;6.80;52.80;;;;;;5123719;27;20482;-58
2022/04/21 04:21:31;;;;;;;11.60;6.15;;;6.80;52.90;;;;;;5127197;27;20053;-58
2022/04/21 04:23:58;;;;;;;8.50;5.53;;;6.80;53.10;;;;;;5123408;27;20079;-61
2022/04/21 04:26:23;;;;;;;7.93;5.50;;;6.80;53.20;;;;;;5044987;27;20020;-59
2022/04/21 04:28:49;;;;;;;11.20;5.50;;;6.70;53.20;;;;;;5127934;27;20052;-60
2022/04/21 04:31:15;;;;;;;8.35;5.20;;;6.70;53.10;;;;;;5108593;27;20023;-60
2022/04/21 04:33:41;;;;;;;9.65;5.45;;;6.70;53.20;;;;;;5122264;27;20020;-59
2022/04/21 04:36:09;;;;;;;7.80;5.38;;;6.70;53.20;;;;;;5121342;27;20038;-60
2022/04/21 04:38:35;;;;;;;13.70;5.63;;;6.70;53.30;;;;;;5114748;28;20038;-60
2022/04/21 04:42:16;;;;;;;7.85;5.45;;;6.70;53.30;;;;;;5122032;27;20024;-60
2022/04/21 04:43:46;;;;;;;9.80;5.07;;;6.70;53.50;;;;;;5115459;27;20048;-60
2022/04/21 04:48:56;;;;;;;15.93;6.28;;;6.70;53.40;;;;;;5120535;27;20103;-60
2022/04/21 04:51:21;;;;;;;8.98;5.93;;;6.70;53.40;;;;;;5120762;27;20047;-60
2022/04/21 04:53:47;;;;;;;11.52;6.18;;;6.70;53.50;;;;;;5116243;27;20127;-61
2022/04/21 04:56:14;;;;;;;11.45;6.15;;;6.70;53.80;;;;;;5115546;27;20028;-59
2022/04/21 04:58:40;;;;;;;12.45;5.97;;;6.80;53.80;;;;;;5116495;27;20031;-60
2022/04/21 05:01:06;;;;;;;15.10;6.63;;;6.80;54.00;;;;;;5117375;28;20020;-61
2022/04/21 05:03:32;;;;;;;11.68;6.15;;;6.80;54.00;;;;;;5121897;27;20027;-59
2022/04/21 05:05:57;;;;;;;13.02;7.07;;;6.80;53.90;;;;;;5116105;28;20026;-61
2022/04/21 05:08:23;;;;;;;15.05;6.03;;;6.80;54.00;;;;;;5117403;27;20032;-59
2022/04/21 05:10:53;;;;;;;16.15;6.57;;;6.80;54.00;;;;;;5116475;28;20028;-61
2022/04/21 05:13:18;;;;;;;13.77;6.47;;;6.90;54.30;;;;;;5115101;27;20027;-61
2022/04/21 05:15:44;;;;;;;10.80;6.22;;;6.90;54.10;;;;;;5120213;27;20023;-61
2022/04/21 05:18:10;;;;;;;13.10;5.97;;;7.00;54.10;;;;;;5124251;27;20474;-59
2022/04/21 05:20:36;;;;;;;20.83;6.25;;;7.00;54.20;;;;;;5125920;27;20057;-60
2022/04/21 05:23:06;;;;;;;12.73;5.88;;;7.10;54.20;;;;;;5114620;27;20044;-60
2022/04/21 05:25:36;;;;;;;17.10;6.03;;;7.10;54.30;;;;;;5120311;27;20024;-60
2022/04/21 05:28:02;;;;;;;14.48;6.20;;;7.20;54.20;;;;;;5114908;28;20377;-59
2022/04/21 05:33:21;;;;;;;24.90;5.57;;;7.30;54.20;;;;;;5120481;27;20174;-59
2022/04/21 05:35:46;;;;;;;15.45;5.93;;;7.40;54.50;;;;;;5112710;28;20050;-60
2022/04/21 05:38:16;;;;;;;10.43;5.97;;;7.50;54.10;;;;;;5120335;27;20494;-60
2022/04/21 05:40:42;;;;;;;10.43;5.47;;;7.60;54.20;;;;;;5111305;28;20028;-60
2022/04/21 05:43:10;;;;;;;8.55;5.80;;;7.70;54.10;;;;;;5118008;27;20027;-61
2022/04/21 05:45:36;;;;;;;12.85;5.95;;;7.80;54.10;;;;;;5119321;27;20028;-58
2022/04/21 05:48:03;;;;;;;12.57;5.82;;;7.90;54.10;;;;;;5115657;27;20656;-61
2022/04/21 05:50:29;;;;;;;14.75;5.80;;;8.10;54.20;;;;;;5122472;27;20050;-60
2022/04/21 05:53:01;;;;;;;14.05;6.30;;;8.20;54.10;;;;;;5124112;27;20109;-61
2022/04/21 05:55:27;;;;;;;13.95;6.80;;;8.40;54.20;;;;;;5114895;27;20545;-60
2022/04/21 05:57:53;;;;;;;11.15;6.28;;;8.50;54.00;;;;;;5118848;27;20054;-60
2022/04/21 06:00:20;;;;;;;9.65;6.53;;;8.60;54.00;;;;;;5113837;27;20016;-59
2022/04/21 06:02:46;;;;;;;9.40;6.60;;;8.80;54.00;;;;;;5114907;27;20023;-60
2022/04/21 06:05:12;;;;;;;9.88;6.28;;;9.00;54.00;;;;;;5126122;27;20023;-61
2022/04/21 06:07:38;;;;;;;13.02;7.00;;;9.10;53.80;;;;;;5118543;27;20031;-59
2022/04/21 06:10:04;;;;;;;10.20;6.72;;;9.30;53.60;;;;;;5114777;27;20547;-60
2022/04/21 06:12:29;;;;;;;19.52;7.47;;;9.50;53.60;;;;;;5122485;27;20019;-59
2022/04/21 06:14:55;;;;;;;14.32;7.70;;;9.60;53.50;;;;;;5123051;27;20104;-56
2022/04/21 06:17:21;;;;;;;12.65;6.55;;;9.80;53.30;;;;;;5120388;27;20065;-57
2022/04/21 06:19:47;;;;;;;18.30;7.05;;;9.90;53.20;;;;;;5118650;27;20016;-57
2022/04/21 06:22:13;;;;;;;15.10;7.70;;;10.00;53.00;;;;;;5111004;28;20020;-59
2022/04/21 06:24:40;;;;;;;12.63;7.28;;;10.10;52.90;;;;;;5074710;28;20117;-59
2022/04/21 06:27:06;;;;;;;13.25;8.13;;;10.20;52.80;;;;;;5120147;28;20024;-59
2022/04/21 06:29:31;;;;;;;11.90;7.10;;;10.40;52.80;;;;;;5114461;28;20039;-60
2022/04/21 06:31:57;;;;;;;10.60;7.00;;;10.50;52.70;;;;;;5120352;27;20072;-60
2022/04/21 06:34:22;;;;;;;13.90;7.13;;;10.60;52.50;;;;;;5119413;27;20034;-60
2022/04/21 06:36:49;;;;;;;12.38;7.32;;;10.80;52.40;;;;;;5123817;27;20090;-60
2022/04/21 06:39:15;;;;;;;9.50;6.28;;;10.90;52.30;;;;;;5122456;27;20043;-61
2022/04/21 06:41:41;;;;;;;12.75;6.63;;;11.10;52.20;;;;;;5116502;27;20139;-59
2022/04/21 06:49:35;;;;;;;8.75;6.30;;;11.60;51.60;;;;;;5116862;28;20051;-61
2022/04/21 06:52:00;;;;;;;9.10;6.45;;;11.80;51.30;;;;;;5116921;28;20032;-59
2022/04/21 06:54:26;;;;;;;15.23;6.50;;;11.90;51.20;;;;;;5116614;28;20055;-61
2022/04/21 06:56:53;;;;;;;9.45;6.18;;;12.10;51.00;;;;;;5121045;28;20028;-61
2022/04/21 06:59:18;;;;;;;7.57;5.75;;;12.30;50.80;;;;;;5125363;28;20088;-60
2022/04/21 07:01:48;;;;;;;10.45;5.93;;;12.40;50.60;;;;;;5111048;28;20208;-61
2022/04/21 07:04:14;;;;;;;7.88;5.60;;;12.60;50.60;;;;;;5114497;28;20034;-59
2022/04/21 07:06:40;;;;;;;6.72;5.43;;;12.70;50.60;;;;;;5116849;28;20015;-61
2022/04/21 07:09:06;;;;;;;6.45;4.65;;;12.90;50.40;;;;;;5116970;28;20375;-60
2022/04/21 07:11:32;;;;;;;5.13;4.28;;;13.00;50.00;;;;;;5114591;28;20046;-61
2022/04/21 07:13:57;;;;;;;4.78;4.18;;;13.20;49.80;;;;;;5119780;28;20031;-61
2022/04/21 07:16:23;;;;;;;5.13;4.38;;;13.30;49.80;;;;;;5116447;28;20028;-61
2022/04/21 07:18:49;;;;;;;6.65;4.78;;;13.40;49.60;;;;;;5116391;28;20039;-60
2022/04/21 07:21:15;;;;;;;5.82;4.88;;;13.50;49.30;;;;;;5125395;28;20019;-59
2022/04/21 07:23:44;;;;;;;5.35;4.72;;;13.70;49.40;;;;;;5114462;28;20024;-61
2022/04/21 07:26:10;;;;;;;6.68;4.93;;;13.80;49.00;;;;;;5116660;28;20054;-59
2022/04/21 07:28:36;;;;;;;4.90;4.40;;;13.80;48.60;;;;;;5119181;28;20088;-59
2022/04/21 07:31:02;;;;;;;8.43;4.25;;;13.90;48.40;;;;;;5120501;27;20019;-59
2022/04/21 07:33:28;;;;;;;6.10;4.95;;;14.10;48.40;;;;;;5116631;27;20413;-61
2022/04/21 07:35:53;;;;;;;5.32;4.55;;;14.00;48.20;;;;;;5115696;27;20027;-61
2022/04/21 07:38:19;;;;;;;4.80;4.28;;;14.10;48.20;;;;;;5120001;27;20034;-61
2022/04/21 07:40:50;;;;;;;5.85;4.55;;;14.10;48.10;;;;;;5128302;27;20011;-59
2022/04/21 07:43:16;;;;;;;6.00;5.03;;;14.20;48.20;;;;;;5120510;27;20027;-60
2022/04/21 07:45:42;;;;;;;5.88;4.07;;;14.30;48.00;;;;;;5121467;27;20023;-61
2022/04/21 07:48:08;;;;;;;6.95;4.53;;;14.50;47.90;;;;;;5125261;27;20050;-61
2022/04/21 07:50:35;;;;;;;7.28;3.97;;;14.50;47.60;;;;;;5117556;28;20031;-59
2022/04/21 07:53:13;;;;;;;5.00;3.80;;;14.60;47.40;;;;;;5118747;28;20020;-61
2022/04/21 07:55:39;;;;;;;4.35;3.90;;;14.80;47.30;;;;;;5117262;27;20110;-61
2022/04/21 07:58:06;;;;;;;5.05;4.07;;;14.90;46.60;;;;;;5117782;27;20039;-60
2022/04/21 08:00:32;;;;;;;4.57;4.03;;;15.00;46.30;;;;;;5117443;27;20031;-59
2022/04/21 08:02:57;;;;;;;5.55;3.83;;;15.00;46.30;;;;;;5117676;27;20078;-60
2022/04/21 08:05:23;;;;;;;4.65;3.50;;;15.10;46.00;;;;;;5122779;27;20055;-57
2022/04/21 08:07:50;;;;;;;5.25;3.70;;;15.30;45.90;;;;;;5115147;27;20032;-58
2022/04/21 08:10:16;;;;;;;7.07;3.55;;;15.40;46.00;;;;;;5124014;27;20027;-58
2022/04/21 08:12:45;;;;;;;3.70;3.35;;;15.40;45.90;;;;;;5130422;27;20023;-60
2022/04/21 08:15:28;;;;;;;4.35;3.50;;;15.50;45.60;;;;;;5123943;27;20509;-60
2022/04/21 08:17:57;;;;;;;4.05;3.63;;;15.70;45.10;;;;;;5120758;27;20053;-61
2022/04/21 08:20:24;;;;;;;3.78;3.35;;;15.70;45.10;;;;;;5126866;27;20023;-57
2022/04/21 08:22:50;;;;;;;4.13;3.70;;;15.80;45.00;;;;;;5130931;27;20117;-58
2022/04/21 08:33:28;;;;;;;5.65;3.47;;;16.20;43.80;;;;;;5118043;27;20067;-60
2022/04/21 08:35:58;;;;;;;5.20;3.92;;;16.30;43.80;;;;;;5122142;27;20028;-60
2022/04/21 08:38:25;;;;;;;5.03;4.25;;;16.30;43.90;;;;;;5116400;27;20024;-59
2022/04/21 08:40:54;;;;;;;5.68;4.25;;;16.40;43.90;;;;;;5116357;28;20555;-60
2022/04/21 08:43:21;;;;;;;9.43;4.40;;;16.50;43.90;;;;;;5123098;27;20034;-60
2022/04/21 08:45:49;;;;;;;16.00;4.50;;;16.60;43.30;;;;;;5120808;27;20030;-59
2022/04/21 08:48:18;;;;;;;5.32;4.00;;;16.70;43.40;;;;;;5121576;27;20035;-61
2022/04/21 08:50:45;;;;;;;10.43;4.10;;;16.80;43.40;;;;;;5114130;28;20054;-60
2022/04/21 08:53:15;;;;;;;3.72;3.38;;;16.90;43.50;;;;;;5112809;27;20028;-61
2022/04/21 08:55:43;;;;;;;4.80;3.95;;;17.00;43.20;;;;;;5114317;27;20083;-60
2022/04/21 08:58:08;;;;;;;6.13;3.80;;;17.10;42.80;;;;;;5123273;27;20031;-60
2022/04/21 09:00:34;;;;;;;7.70;4.22;;;17.20;42.70;;;;;;5125637;27;20118;-61
2022/04/21 09:03:06;;;;;;;4.88;4.03;;;17.20;42.60;;;;;;5123556;27;20028;-59
2022/04/21 09:05:31;;;;;;;4.55;3.70;;;17.30;41.50;;;;;;5123432;27;20077;-60
2022/04/21 09:07:59;;;;;;;4.63;4.03;;;17.40;41.50;;;;;;5120047;27;20416;-61
2022/04/21 09:10:28;;;;;;;6.10;4.07;;;17.50;41.60;;;;;;5114046;28;20051;-59
2022/04/21 09:12:58;;;;;;;6.43;4.05;;;17.50;41.40;;;;;;5125412;27;20095;-60
2022/04/21 09:15:27;;;;;;;4.95;3.95;;;17.60;41.20;;;;;;5117703;27;20024;-60
2022/04/21 09:18:11;;;;;;;4.60;3.70;;;17.60;41.10;;;;;;5119259;28;20062;-61
2022/04/21 09:20:39;;;;;;;7.15;3.85;;;17.60;40.40;;;;;;5120380;27;20019;-60
2022/04/21 09:23:07;;;;;;;4.80;3.83;;;17.70;40.80;;;;;;5129454;27;20038;-62
2022/04/21 09:25:53;;;;;;;6.13;3.85;;;17.80;40.60;;;;;;5120771;27;20028;-60
2022/04/21 09:28:24;;;;;;;4.63;3.90;;;17.80;40.60;;;;;;5128978;27;20031;-59
2022/04/21 09:30:57;;;;;;;4.95;3.95;;;18.00;41.30;;;;;;5118719;27;20062;-60
2022/04/21 09:33:33;;;;;;;6.28;4.13;;;18.10;41.10;;;;;;5118323;27;20076;-60
2022/04/21 09:36:02;;;;;;;4.18;3.38;;;18.20;40.90;;;;;;5126780;27;20023;-60
2022/04/21 09:38:28;;;;;;;4.18;3.65;;;18.40;41.10;;;;;;5116690;27;20042;-60
2022/04/21 09:40:54;;;;;;;4.57;3.22;;;18.50;41.00;;;;;;5124107;27;20633;-60
2022/04/21 09:43:31;;;;;;;5.03;3.60;;;18.60;40.70;;;;;;5120910;27;20035;-59
2022/04/21 09:46:14;;;;;;;4.43;3.60;;;18.80;39.80;;;;;;5116068;27;20061;-59
2022/04/21 09:48:41;;;;;;;10.33;4.10;;;19.00;39.20;;;;;;5112118;28;20043;-60
2022/04/21 09:51:17;;;;;;;5.80;4.00;;;19.10;40.30;;;;;;5125279;27;20023;-62
2022/04/21 09:54:02;;;;;;;3.63;3.33;;;19.30;40.10;;;;;;5117575;27;20015;-61
2022/04/21 09:56:40;;;;;;;3.83;3.25;;;19.40;39.20;;;;;;5127166;27;20046;-60
2022/04/21 09:59:10;;;;;;;4.55;3.28;;;19.60;38.10;;;;;;5118569;27;20058;-61
2022/04/21 10:01:38;;;;;;;4.20;3.25;;;19.70;38.30;;;;;;5120798;27;20051;-60
2022/04/21 10:04:08;;;;;;;3.88;3.42;;;19.80;38.10;;;;;;5119089;28;20476;-59
2022/04/21 10:06:40;;;;;;;6.43;3.05;;;19.90;37.10;;;;;;5125902;27;20492;-60
2022/04/21 10:09:09;;;;;;;4.00;3.60;;;20.00;37.90;;;;;;5114705;28;20059;-59
2022/04/21 10:11:40;;;;;;;4.38;3.47;;;20.10;38.50;;;;;;5120252;27;20079;-61
2022/04/21 10:14:06;;;;;;;6.63;3.70;;;20.20;38.30;;;;;;5119744;27;20058;-57
2022/04/21 10:16:32;;;;;;;4.28;3.33;;;20.30;38.40;;;;;;5124528;27;20032;-60
2022/04/21 10:19:00;;;;;;;4.80;3.53;;;20.30;37.50;;;;;;5123594;27;20027;-61
2022/04/21 10:21:29;;;;;;;4.25;3.50;;;20.40;37.80;;;;;;5120205;27;20019;-60
2022/04/21 10:23:56;;;;;;;5.85;3.25;;;20.50;36.90;;;;;;5119751;27;20027;-60
2022/04/21 10:26:38;;;;;;;5.40;2.72;;;20.50;36.30;;;;;;5116162;27;20057;-60
2022/04/21 10:29:14;;;;;;;5.82;3.22;;;20.30;36.00;;;;;;5120758;27;20067;-61
2022/04/21 10:31:57;;;;;;;3.85;2.88;;;20.30;36.20;;;;;;5120284;27;20039;-60
2022/04/21 10:34:44;;;;;;;3.55;2.78;;;20.10;35.60;;;;;;5119460;27;20107;-60
2022/04/21 10:37:20;;;;;;;3.97;2.33;;;20.00;35.90;;;;;;5124980;27;20050;-60
2022/04/21 10:40:07;;;;;;;5.40;2.45;;;19.90;36.10;;;;;;5114768;27;20027;-60
2022/04/21 10:42:52;;;;;;;4.10;2.17;;;19.80;36.40;;;;;;5120844;27;20016;-61
2022/04/21 10:45:33;;;;;;;2.75;2.55;;;19.70;36.30;;;;;;5118635;28;20517;-60
2022/04/21 10:48:08;;;;;;;5.15;2.25;;;19.70;35.80;;;;;;5122350;27;20486;-61
2022/04/21 10:50:36;;;;;;;1.92;1.83;;;19.60;37.00;;;;;;5119158;27;20032;-61
2022/04/21 10:58:36;;;;;;;4.45;1.95;;;19.70;38.00;;;;;;5113534;28;20137;-61
2022/04/21 11:01:12;;;;;;;2.80;1.80;;;19.90;38.00;;;;;;5110525;28;20043;-62
2022/04/21 11:03:40;;;;;;;1.70;1.60;;;20.10;37.50;;;;;;5111349;28;20028;-61
2022/04/21 11:06:06;;;;;;;2.17;1.98;;;20.40;37.40;;;;;;5118124;28;20536;-62
2022/04/21 11:08:32;;;;;;;2.58;2.30;;;20.60;37.60;;;;;;5120166;27;20370;-62
2022/04/21 11:10:58;;;;;;;2.20;2.00;;;20.80;36.90;;;;;;5111060;28;20028;-61
2022/04/21 11:13:39;;;;;;;3.88;2.03;;;21.00;36.70;;;;;;5127598;27;20028;-61
2022/04/21 11:16:05;;;;;;;3.78;2.20;;;21.20;36.80;;;;;;5131879;27;20041;-61
2022/04/21 11:18:32;;;;;;;2.63;2.22;;;21.30;37.30;;;;;;5128841;27;20027;-61
2022/04/21 11:21:25;;;;;;;2.33;2.13;;;21.50;36.70;;;;;;5127476;27;20051;-61
2022/04/21 11:23:51;;;;;;;2.22;2.03;;;21.70;35.80;;;;;;5121466;27;20042;-63
2022/04/21 11:26:17;;;;;;;3.55;2.60;;;21.80;36.10;;;;;;5122718;27;20028;-62
2022/04/21 11:28:45;;;;;;;1.90;1.80;;;21.90;35.80;;;;;;5122940;27;20070;-61
2022/04/21 11:31:11;;;;;;;1.73;1.63;;;22.00;35.50;;;;;;5119472;27;20053;-61
2022/04/21 11:33:39;;;;;;;2.92;1.95;;;22.10;34.90;;;;;;5125598;27;20023;-61
2022/04/21 11:36:06;;;;;;;3.50;1.85;;;22.30;35.30;;;;;;5114882;27;20020;-62
2022/04/21 11:38:33;;;;;;;2.25;1.80;;;22.40;35.00;;;;;;5121443;27;20022;-62
2022/04/21 11:41:03;;;;;;;2.67;1.65;;;22.60;34.30;;;;;;5120983;27;20035;-62
2022/04/21 11:43:29;;;;;;;1.92;1.83;;;22.60;33.50;;;;;;5121322;27;20826;-62
2022/04/21 11:46:06;;;;;;;2.38;1.95;;;22.60;33.10;;;;;;5123736;27;20055;-62
2022/04/21 11:48:33;;;;;;;1.95;1.80;;;22.50;32.90;;;;;;5125693;27;20056;-61
2022/04/21 11:51:02;;;;;;;2.08;1.77;;;22.40;33.40;;;;;;5125611;27;20032;-61
2022/04/21 11:53:30;;;;;;;2.90;2.25;;;22.30;33.30;;;;;;5127994;27;20042;-61
2022/04/21 11:55:56;;;;;;;2.75;1.92;;;22.20;33.10;;;;;;5106915;27;20028;-62
2022/04/21 11:58:38;;;;;;;2.25;2.05;;;22.10;33.80;;;;;;5128906;27;20082;-62
2022/04/21 12:06:45;;;;;;;2.10;1.90;;;22.00;33.40;;;;;;5122417;27;20046;-62
2022/04/21 12:09:21;;;;;;;4.78;2.58;;;21.90;33.70;;;;;;5123518;28;20635;-61
2022/04/21 12:11:55;;;;;;;5.05;2.10;;;21.90;33.40;;;;;;5130981;27;20034;-61
2022/04/21 12:14:21;;;;;;;2.50;2.10;;;21.80;33.70;;;;;;5121753;27;20027;-61
2022/04/21 12:16:56;;;;;;;3.42;2.47;;;21.80;33.70;;;;;;5116677;27;20036;-62
2022/04/21 12:19:37;;;;;;;3.22;2.47;;;21.80;33.80;;;;;;5144489;27;20034;-61
2022/04/21 12:22:09;;;;;;;7.47;2.72;;;21.70;33.40;;;;;;5115829;27;20649;-61
2022/04/21 12:24:54;;;;;;;3.30;2.70;;;21.60;33.20;;;;;;5136939;27;20027;-62
2022/04/21 12:27:24;;;;;;;3.03;2.72;;;21.50;33.20;;;;;;5127956;27;20020;-61
2022/04/21 12:30:06;;;;;;;3.20;2.53;;;21.40;33.10;;;;;;5126489;27;20042;-62
2022/04/21 12:32:34;;;;;;;3.20;2.65;;;21.20;33.40;;;;;;5126962;27;20027;-61
2022/04/21 12:35:03;;;;;;;3.90;2.58;;;21.10;33.90;;;;;;5117029;27;20053;-61
2022/04/21 12:37:33;;;;;;;2.97;2.70;;;20.90;33.90;;;;;;5115873;27;20028;-62
2022/04/21 12:40:00;;;;;;;3.22;2.80;;;20.80;34.30;;;;;;5126755;27;20097;-61
2022/04/21 12:42:28;;;;;;;3.22;2.60;;;20.70;34.50;;;;;;5120617;27;20035;-62
2022/04/21 12:44:54;;;;;;;2.47;2.28;;;20.60;34.30;;;;;;5124000;27;20153;-61
2022/04/21 12:47:21;;;;;;;2.60;2.25;;;20.60;34.50;;;;;;5126614;27;20027;-61
2022/04/21 12:49:58;;;;;;;2.40;2.17;;;20.50;34.50;;;;;;5126721;27;20044;-61
2022/04/21 12:52:39;;;;;;;3.42;2.35;;;20.40;34.50;;;;;;5124232;27;20027;-62
2022/04/21 12:55:11;;;;;;;5.05;2.38;;;20.30;34.40;;;;;;5127890;27;20024;-62
2022/04/21 12:57:37;;;;;;;8.50;2.65;;;20.20;34.50;;;;;;5133909;27;20027;-61
2022/04/21 13:00:07;;;;;;;2.83;2.40;;;20.10;34.50;;;;;;5121778;27;20584;-61
2022/04/21 13:02:32;;;;;;;2.90;2.60;;;20.00;34.70;;;;;;5121888;27;20022;-60
2022/04/21 13:04:58;;;;;;;3.00;2.67;;;19.90;35.00;;;;;;5120812;27;20050;-62
2022/04/21 13:07:24;;;;;;;3.10;2.80;;;19.80;35.20;;;;;;5135276;27;20526;-62
2022/04/21 13:09:50;;;;;;;3.05;2.75;;;19.70;35.50;;;;;;5130323;27;20368;-61
2022/04/21 13:12:16;;;;;;;3.67;3.22;;;19.60;35.40;;;;;;5125497;27;20057;-61
2022/04/21 13:14:42;;;;;;;4.30;3.45;;;19.60;35.70;;;;;;5126235;27;20079;-61
2022/04/21 13:17:08;;;;;;;6.80;3.42;;;19.60;35.90;;;;;;5124438;27;20028;-61
2022/04/21 13:19:34;;;;;;;4.85;4.00;;;19.50;36.10;;;;;;5120239;27;20038;-61
2022/04/21 13:22:01;;;;;;;6.57;3.70;;;19.50;36.00;;;;;;5128395;27;20028;-61
2022/04/21 13:24:28;;;;;;;3.72;3.38;;;19.60;36.30;;;;;;5123764;27;20032;-61
2022/04/21 13:26:54;;;;;;;7.50;4.13;;;19.60;36.10;;;;;;5115915;27;20020;-61
2022/04/21 13:29:20;;;;;;;5.32;3.88;;;19.70;36.10;;;;;;5117717;27;20078;-60
2022/04/21 13:34:32;;;;;;;3.85;3.38;;;19.60;36.00;;;;;;5127108;27;20101;-61
2022/04/21 13:36:58;;;;;;;4.88;3.75;;;19.60;35.70;;;;;;5125843;27;20024;-61
2022/04/21 13:39:24;;;;;;;3.40;2.97;;;19.50;35.70;;;;;;5124750;27;20058;-63
2022/04/21 13:41:50;;;;;;;3.72;2.92;;;19.50;35.70;;;;;;5128751;27;20108;-61
2022/04/21 13:44:16;;;;;;;3.50;3.20;;;19.50;35.80;;;;;;5130508;27;20023;-61
2022/04/21 13:46:42;;;;;;;3.85;3.45;;;19.50;36.10;;;;;;5124216;27;20020;-63